sensor_id;sensor_type;location;lat;lon;timestamp;P1;durP1;ratioP1;P2;durP2;ratioP2
647;SDS011;75315;49.006;9.060;2024-03-23T00:54:17;41.28;;;5.30;;
647;SDS011;75315;49.006;9.060;2024-03-23T00:56:44;38.70;;;6.28;;
647;SDS011;75315;49.006;9.060;2024-03-23T00:59:10;40.38;;;6.97;;
647;SDS011;75315;49.006;9.060;2024-03-23T01:01:37;41.28;;;8.02;;
647;SDS011;75315;49.006;9.060;2024-03-23T01:04:04;42.83;;;7.10;;
647;SDS011;75315;49.006;9.060;2024-03-23T01:06:30;40.28;;;7.00;;
647;SDS011;75315;49.006;9.060;2024-03-23T01:08:57;41.13;;;7.30;;
647;SDS011;75315;49.006;9.060;2024-03-23T01:11:23;44.75;;;9.43;;
647;SDS011;75315;49.006;9.060;2024-03-23T01:13:50;42.75;;;8.70;;
647;SDS011;75315;49.006;9.060;2024-03-23T01:16:16;43.20;;;7.65;;
647;SDS011;75315;49.006;9.060;2024-03-23T01:18:42;42.63;;;8.15;;
647;SDS011;75315;49.006;9.060;2024-03-23T01:21:09;41.53;;;8.23;;
647;SDS011;75315;49.006;9.060;2024-03-23T01:23:36;41.65;;;7.50;;
647;SDS011;75315;49.006;9.060;2024-03-23T01:26:02;42.70;;;8.90;;
647;SDS011;75315;49.006;9.060;2024-03-23T01:28:28;42.20;;;8.45;;
647;SDS011;75315;49.006;9.060;2024-03-23T01:30:55;41.55;;;8.43;;
647;SDS011;75315;49.006;9.060;2024-03-23T01:33:21;42.03;;;7.35;;
647;SDS011;75315;49.006;9.060;2024-03-23T01:35:48;42.67;;;8.60;;
647;SDS011;75315;49.006;9.060;2024-03-23T01:38:14;40.67;;;7.40;;
647;SDS011;75315;49.006;9.060;2024-03-23T01:40:40;42.30;;;7.57;;
647;SDS011;75315;49.006;9.060;2024-03-23T01:43:07;40.60;;;7.20;;
647;SDS011;75315;49.006;9.060;2024-03-23T01:45:34;42.90;;;8.07;;
647;SDS011;75315;49.006;9.060;2024-03-23T01:48:01;44.38;;;7.82;;
647;SDS011;75315;49.006;9.060;2024-03-23T01:50:28;40.53;;;6.22;;
647;SDS011;75315;49.006;9.060;2024-03-23T01:53:02;38.95;;;6.32;;
647;SDS011;75315;49.006;9.060;2024-03-23T01:55:31;39.92;;;6.22;;
647;SDS011;75315;49.006;9.060;2024-03-23T01:57:58;39.92;;;6.30;;
647;SDS011;75315;49.006;9.060;2024-03-23T02:00:25;38.50;;;5.60;;
647;SDS011;75315;49.006;9.060;2024-03-23T02:02:53;42.05;;;6.57;;
647;SDS011;75315;49.006;9.060;2024-03-23T02:05:21;42.22;;;5.95;;
647;SDS011;75315;49.006;9.060;2024-03-23T02:07:48;40.67;;;5.80;;
647;SDS011;75315;49.006;9.060;2024-03-23T02:10:15;40.80;;;5.15;;
647;SDS011;75315;49.006;9.060;2024-03-23T02:12:41;38.67;;;5.18;;
647;SDS011;75315;49.006;9.060;2024-03-23T02:15:07;39.63;;;5.03;;
647;SDS011;75315;49.006;9.060;2024-03-23T02:17:36;39.60;;;5.43;;
647;SDS011;75315;49.006;9.060;2024-03-23T02:20:03;39.80;;;5.43;;
647;SDS011;75315;49.006;9.060;2024-03-23T02:22:38;38.47;;;4.70;;
647;SDS011;75315;49.006;9.060;2024-03-23T02:25:05;38.60;;;4.90;;
647;SDS011;75315;49.006;9.060;2024-03-23T02:27:32;39.85;;;5.35;;
647;SDS011;75315;49.006;9.060;2024-03-23T02:30:00;43.05;;;5.03;;
647;SDS011;75315;49.006;9.060;2024-03-23T02:32:27;40.63;;;5.60;;
647;SDS011;75315;49.006;9.060;2024-03-23T02:34:53;41.90;;;5.55;;
647;SDS011;75315;49.006;9.060;2024-03-23T02:37:20;39.22;;;4.97;;
647;SDS011;75315;49.006;9.060;2024-03-23T02:39:46;38.30;;;4.65;;
647;SDS011;75315;49.006;9.060;2024-03-23T02:42:12;40.25;;;4.57;;
647;SDS011;75315;49.006;9.060;2024-03-23T02:44:39;39.78;;;5.63;;
647;SDS011;75315;49.006;9.060;2024-03-23T02:47:05;40.42;;;5.05;;
647;SDS011;75315;49.006;9.060;2024-03-23T02:49:32;40.40;;;5.30;;
647;SDS011;75315;49.006;9.060;2024-03-23T02:51:58;40.47;;;5.68;;
647;SDS011;75315;49.006;9.060;2024-03-23T02:54:25;41.15;;;5.45;;
647;SDS011;75315;49.006;9.060;2024-03-23T02:56:51;40.63;;;5.68;;
647;SDS011;75315;49.006;9.060;2024-03-23T02:59:17;38.85;;;4.95;;
647;SDS011;75315;49.006;9.060;2024-03-23T03:01:44;41.50;;;5.95;;
647;SDS011;75315;49.006;9.060;2024-03-23T03:04:10;39.05;;;4.65;;
647;SDS011;75315;49.006;9.060;2024-03-23T03:06:37;40.42;;;6.15;;
647;SDS011;75315;49.006;9.060;2024-03-23T03:09:03;40.60;;;5.80;;
647;SDS011;75315;49.006;9.060;2024-03-23T03:11:30;41.22;;;6.68;;
647;SDS011;75315;49.006;9.060;2024-03-23T03:13:56;41.30;;;5.80;;
647;SDS011;75315;49.006;9.060;2024-03-23T03:16:26;39.63;;;4.60;;
647;SDS011;75315;49.006;9.060;2024-03-23T03:18:53;39.15;;;5.78;;
647;SDS011;75315;49.006;9.060;2024-03-23T03:21:19;40.65;;;5.82;;
647;SDS011;75315;49.006;9.060;2024-03-23T03:23:45;38.80;;;5.63;;
647;SDS011;75315;49.006;9.060;2024-03-23T03:26:13;41.13;;;6.22;;
647;SDS011;75315;49.006;9.060;2024-03-23T03:28:40;42.63;;;6.20;;
647;SDS011;75315;49.006;9.060;2024-03-23T03:31:06;41.40;;;5.72;;
647;SDS011;75315;49.006;9.060;2024-03-23T03:33:32;45.22;;;7.75;;
647;SDS011;75315;49.006;9.060;2024-03-23T03:35:59;40.20;;;5.10;;
647;SDS011;75315;49.006;9.060;2024-03-23T03:38:25;40.00;;;6.20;;
647;SDS011;75315;49.006;9.060;2024-03-23T03:40:52;41.38;;;6.60;;
647;SDS011;75315;49.006;9.060;2024-03-23T03:43:19;42.47;;;6.03;;
647;SDS011;75315;49.006;9.060;2024-03-23T03:45:52;42.15;;;6.88;;
647;SDS011;75315;49.006;9.060;2024-03-23T03:48:22;41.17;;;6.82;;
647;SDS011;75315;49.006;9.060;2024-03-23T03:50:49;42.83;;;6.47;;
647;SDS011;75315;49.006;9.060;2024-03-23T03:53:15;44.00;;;6.43;;
647;SDS011;75315;49.006;9.060;2024-03-23T03:55:42;40.10;;;6.80;;
647;SDS011;75315;49.006;9.060;2024-03-23T03:58:08;40.60;;;7.05;;
647;SDS011;75315;49.006;9.060;2024-03-23T04:00:35;42.00;;;6.22;;
647;SDS011;75315;49.006;9.060;2024-03-23T04:03:01;41.90;;;7.63;;
647;SDS011;75315;49.006;9.060;2024-03-23T04:05:28;44.15;;;8.73;;
647;SDS011;75315;49.006;9.060;2024-03-23T04:07:55;43.30;;;8.70;;
647;SDS011;75315;49.006;9.060;2024-03-23T04:10:21;47.17;;;9.60;;
647;SDS011;75315;49.006;9.060;2024-03-23T04:12:48;47.97;;;11.02;;
647;SDS011;75315;49.006;9.060;2024-03-23T04:15:14;46.60;;;11.30;;
647;SDS011;75315;49.006;9.060;2024-03-23T04:17:41;47.08;;;11.90;;
647;SDS011;75315;49.006;9.060;2024-03-23T04:20:08;47.40;;;11.88;;
647;SDS011;75315;49.006;9.060;2024-03-23T04:22:37;47.03;;;11.90;;
647;SDS011;75315;49.006;9.060;2024-03-23T04:25:04;47.40;;;10.50;;
647;SDS011;75315;49.006;9.060;2024-03-23T04:27:32;48.10;;;10.27;;
647;SDS011;75315;49.006;9.060;2024-03-23T04:29:59;47.42;;;10.85;;
647;SDS011;75315;49.006;9.060;2024-03-23T04:32:27;46.80;;;10.15;;
647;SDS011;75315;49.006;9.060;2024-03-23T04:34:54;48.80;;;10.50;;
647;SDS011;75315;49.006;9.060;2024-03-23T04:37:20;44.33;;;10.65;;
647;SDS011;75315;49.006;9.060;2024-03-23T04:39:47;48.22;;;10.18;;
647;SDS011;75315;49.006;9.060;2024-03-23T04:42:14;46.75;;;10.30;;
647;SDS011;75315;49.006;9.060;2024-03-23T04:44:41;50.95;;;13.57;;
647;SDS011;75315;49.006;9.060;2024-03-23T04:47:08;46.08;;;9.80;;
647;SDS011;75315;49.006;9.060;2024-03-23T04:49:38;47.08;;;11.60;;
647;SDS011;75315;49.006;9.060;2024-03-23T04:52:05;52.53;;;12.88;;
647;SDS011;75315;49.006;9.060;2024-03-23T04:54:31;47.38;;;11.85;;
647;SDS011;75315;49.006;9.060;2024-03-23T04:56:58;47.70;;;13.07;;
647;SDS011;75315;49.006;9.060;2024-03-23T04:59:24;48.78;;;12.63;;
647;SDS011;75315;49.006;9.060;2024-03-23T05:01:51;48.35;;;14.07;;
647;SDS011;75315;49.006;9.060;2024-03-23T05:04:17;48.28;;;12.73;;
647;SDS011;75315;49.006;9.060;2024-03-23T05:06:44;46.00;;;12.43;;
647;SDS011;75315;49.006;9.060;2024-03-23T05:09:10;46.60;;;12.30;;
647;SDS011;75315;49.006;9.060;2024-03-23T05:11:38;52.40;;;14.10;;
647;SDS011;75315;49.006;9.060;2024-03-23T05:14:04;45.80;;;12.02;;
647;SDS011;75315;49.006;9.060;2024-03-23T05:16:31;52.92;;;13.23;;
647;SDS011;75315;49.006;9.060;2024-03-23T05:18:57;55.33;;;20.20;;
647;SDS011;75315;49.006;9.060;2024-03-23T05:21:23;50.15;;;12.90;;
647;SDS011;75315;49.006;9.060;2024-03-23T05:23:50;46.42;;;12.38;;
647;SDS011;75315;49.006;9.060;2024-03-23T05:26:17;47.40;;;13.73;;
647;SDS011;75315;49.006;9.060;2024-03-23T05:28:43;50.67;;;14.65;;
647;SDS011;75315;49.006;9.060;2024-03-23T05:31:10;49.95;;;14.68;;
647;SDS011;75315;49.006;9.060;2024-03-23T05:33:36;48.33;;;13.80;;
647;SDS011;75315;49.006;9.060;2024-03-23T05:36:04;47.05;;;14.00;;
647;SDS011;75315;49.006;9.060;2024-03-23T05:38:31;48.50;;;13.70;;
647;SDS011;75315;49.006;9.060;2024-03-23T05:40:57;49.17;;;14.95;;
647;SDS011;75315;49.006;9.060;2024-03-23T05:43:26;45.25;;;11.80;;
647;SDS011;75315;49.006;9.060;2024-03-23T05:45:54;47.83;;;12.57;;
647;SDS011;75315;49.006;9.060;2024-03-23T05:48:21;49.13;;;12.40;;
647;SDS011;75315;49.006;9.060;2024-03-23T05:50:48;47.38;;;11.13;;
647;SDS011;75315;49.006;9.060;2024-03-23T05:53:15;45.25;;;10.20;;
647;SDS011;75315;49.006;9.060;2024-03-23T05:55:42;42.85;;;10.02;;
647;SDS011;75315;49.006;9.060;2024-03-23T05:58:09;47.05;;;11.18;;
647;SDS011;75315;49.006;9.060;2024-03-23T06:00:36;44.60;;;10.80;;
647;SDS011;75315;49.006;9.060;2024-03-23T06:03:02;45.60;;;11.18;;
647;SDS011;75315;49.006;9.060;2024-03-23T06:05:29;45.10;;;10.93;;
647;SDS011;75315;49.006;9.060;2024-03-23T06:07:55;42.80;;;9.07;;
647;SDS011;75315;49.006;9.060;2024-03-23T06:10:22;43.95;;;9.48;;
647;SDS011;75315;49.006;9.060;2024-03-23T06:12:48;44.58;;;8.65;;
647;SDS011;75315;49.006;9.060;2024-03-23T06:15:18;42.72;;;9.10;;
647;SDS011;75315;49.006;9.060;2024-03-23T06:17:45;44.22;;;8.40;;
647;SDS011;75315;49.006;9.060;2024-03-23T06:20:12;41.53;;;7.10;;
647;SDS011;75315;49.006;9.060;2024-03-23T06:22:38;38.15;;;5.15;;
647;SDS011;75315;49.006;9.060;2024-03-23T06:25:05;39.90;;;6.28;;
647;SDS011;75315;49.006;9.060;2024-03-23T06:27:33;37.92;;;4.85;;
647;SDS011;75315;49.006;9.060;2024-03-23T06:30:00;37.97;;;4.70;;
647;SDS011;75315;49.006;9.060;2024-03-23T06:32:27;38.78;;;4.30;;
647;SDS011;75315;49.006;9.060;2024-03-23T06:34:54;36.55;;;3.40;;
647;SDS011;75315;49.006;9.060;2024-03-23T06:37:21;37.75;;;4.63;;
647;SDS011;75315;49.006;9.060;2024-03-23T06:39:47;36.30;;;2.90;;
647;SDS011;75315;49.006;9.060;2024-03-23T06:42:14;35.80;;;2.90;;
647;SDS011;75315;49.006;9.060;2024-03-23T06:44:40;36.05;;;2.80;;
647;SDS011;75315;49.006;9.060;2024-03-23T06:47:07;34.70;;;2.00;;
647;SDS011;75315;49.006;9.060;2024-03-23T06:49:33;34.65;;;2.08;;
647;SDS011;75315;49.006;9.060;2024-03-23T06:52:00;35.42;;;2.10;;
647;SDS011;75315;49.006;9.060;2024-03-23T06:54:26;34.78;;;2.15;;
647;SDS011;75315;49.006;9.060;2024-03-23T06:56:52;35.40;;;2.10;;
647;SDS011;75315;49.006;9.060;2024-03-23T06:59:19;34.75;;;1.60;;
647;SDS011;75315;49.006;9.060;2024-03-23T07:01:45;34.80;;;1.80;;
647;SDS011;75315;49.006;9.060;2024-03-23T07:04:12;35.13;;;2.10;;
647;SDS011;75315;49.006;9.060;2024-03-23T07:06:45;35.42;;;1.90;;
647;SDS011;75315;49.006;9.060;2024-03-23T07:09:11;38.88;;;1.90;;
647;SDS011;75315;49.006;9.060;2024-03-23T07:11:38;34.85;;;1.70;;
647;SDS011;75315;49.006;9.060;2024-03-23T07:14:04;35.28;;;1.83;;
647;SDS011;75315;49.006;9.060;2024-03-23T07:16:31;35.88;;;2.25;;
647;SDS011;75315;49.006;9.060;2024-03-23T07:18:57;35.63;;;1.58;;
647;SDS011;75315;49.006;9.060;2024-03-23T07:21:24;42.30;;;8.45;;
647;SDS011;75315;49.006;9.060;2024-03-23T07:23:50;38.90;;;4.18;;
647;SDS011;75315;49.006;9.060;2024-03-23T07:26:17;36.63;;;3.00;;
647;SDS011;75315;49.006;9.060;2024-03-23T07:28:44;35.72;;;1.80;;
647;SDS011;75315;49.006;9.060;2024-03-23T07:31:12;35.60;;;1.98;;
647;SDS011;75315;49.006;9.060;2024-03-23T07:33:44;35.65;;;1.70;;
647;SDS011;75315;49.006;9.060;2024-03-23T07:36:12;35.42;;;1.77;;
647;SDS011;75315;49.006;9.060;2024-03-23T07:38:42;35.35;;;1.60;;
647;SDS011;75315;49.006;9.060;2024-03-23T07:41:16;36.15;;;2.50;;
647;SDS011;75315;49.006;9.060;2024-03-23T07:43:43;36.20;;;1.95;;
647;SDS011;75315;49.006;9.060;2024-03-23T07:46:10;35.08;;;1.67;;
647;SDS011;75315;49.006;9.060;2024-03-23T07:48:38;35.00;;;1.60;;
647;SDS011;75315;49.006;9.060;2024-03-23T07:51:08;34.95;;;1.75;;
647;SDS011;75315;49.006;9.060;2024-03-23T07:53:36;35.55;;;2.10;;
647;SDS011;75315;49.006;9.060;2024-03-23T07:56:07;35.03;;;1.20;;
647;SDS011;75315;49.006;9.060;2024-03-23T07:58:36;34.67;;;1.30;;
647;SDS011;75315;49.006;9.060;2024-03-23T08:01:06;34.95;;;1.48;;
647;SDS011;75315;49.006;9.060;2024-03-23T08:03:37;34.70;;;1.13;;
647;SDS011;75315;49.006;9.060;2024-03-23T08:06:09;37.25;;;1.23;;
647;SDS011;75315;49.006;9.060;2024-03-23T08:08:44;35.03;;;0.90;;
647;SDS011;75315;49.006;9.060;2024-03-23T08:11:11;34.40;;;1.20;;
647;SDS011;75315;49.006;9.060;2024-03-23T08:13:38;34.65;;;1.15;;
647;SDS011;75315;49.006;9.060;2024-03-23T08:16:06;34.15;;;1.17;;
647;SDS011;75315;49.006;9.060;2024-03-23T08:18:34;34.05;;;0.90;;
647;SDS011;75315;49.006;9.060;2024-03-23T08:21:01;34.15;;;1.27;;
647;SDS011;75315;49.006;9.060;2024-03-23T08:23:32;34.95;;;1.60;;
647;SDS011;75315;49.006;9.060;2024-03-23T08:26:00;36.03;;;1.20;;
647;SDS011;75315;49.006;9.060;2024-03-23T08:28:27;35.35;;;1.25;;
647;SDS011;75315;49.006;9.060;2024-03-23T08:30:54;36.20;;;1.15;;
647;SDS011;75315;49.006;9.060;2024-03-23T08:33:21;35.95;;;1.52;;
647;SDS011;75315;49.006;9.060;2024-03-23T08:36:03;37.17;;;1.70;;
647;SDS011;75315;49.006;9.060;2024-03-23T08:38:31;36.50;;;1.70;;
647;SDS011;75315;49.006;9.060;2024-03-23T08:41:01;36.53;;;1.42;;
647;SDS011;75315;49.006;9.060;2024-03-23T08:43:30;36.83;;;1.40;;
647;SDS011;75315;49.006;9.060;2024-03-23T08:46:10;36.97;;;1.45;;
647;SDS011;75315;49.006;9.060;2024-03-23T08:48:42;36.25;;;1.40;;
647;SDS011;75315;49.006;9.060;2024-03-23T08:51:10;36.15;;;1.50;;
647;SDS011;75315;49.006;9.060;2024-03-23T08:53:38;36.55;;;1.67;;
647;SDS011;75315;49.006;9.060;2024-03-23T08:56:05;36.88;;;1.55;;
647;SDS011;75315;49.006;9.060;2024-03-23T08:58:33;35.90;;;2.00;;
647;SDS011;75315;49.006;9.060;2024-03-23T09:01:11;34.85;;;1.80;;
647;SDS011;75315;49.006;9.060;2024-03-23T09:03:39;36.15;;;2.35;;
647;SDS011;75315;49.006;9.060;2024-03-23T09:06:09;37.80;;;2.08;;
647;SDS011;75315;49.006;9.060;2024-03-23T09:08:37;36.92;;;2.25;;
647;SDS011;75315;49.006;9.060;2024-03-23T09:11:04;37.15;;;2.30;;
647;SDS011;75315;49.006;9.060;2024-03-23T09:13:34;37.22;;;2.85;;
647;SDS011;75315;49.006;9.060;2024-03-23T09:16:01;37.67;;;4.20;;
647;SDS011;75315;49.006;9.060;2024-03-23T09:18:31;38.45;;;2.65;;
647;SDS011;75315;49.006;9.060;2024-03-23T09:20:58;39.00;;;3.35;;
647;SDS011;75315;49.006;9.060;2024-03-23T09:23:25;42.10;;;6.65;;
647;SDS011;75315;49.006;9.060;2024-03-23T09:25:51;40.60;;;3.40;;
647;SDS011;75315;49.006;9.060;2024-03-23T09:28:18;39.67;;;4.53;;
647;SDS011;75315;49.006;9.060;2024-03-23T09:30:44;47.60;;;10.35;;
647;SDS011;75315;49.006;9.060;2024-03-23T09:33:11;43.25;;;6.43;;
647;SDS011;75315;49.006;9.060;2024-03-23T09:35:39;41.55;;;5.72;;
647;SDS011;75315;49.006;9.060;2024-03-23T09:38:06;49.67;;;11.52;;
647;SDS011;75315;49.006;9.060;2024-03-23T09:40:42;52.78;;;14.65;;
647;SDS011;75315;49.006;9.060;2024-03-23T09:43:09;45.40;;;8.00;;
647;SDS011;75315;49.006;9.060;2024-03-23T09:45:38;50.72;;;14.00;;
647;SDS011;75315;49.006;9.060;2024-03-23T09:48:06;44.95;;;8.85;;
647;SDS011;75315;49.006;9.060;2024-03-23T09:50:39;45.20;;;6.68;;
647;SDS011;75315;49.006;9.060;2024-03-23T09:53:13;43.53;;;4.35;;
647;SDS011;75315;49.006;9.060;2024-03-23T09:55:40;40.10;;;4.25;;
647;SDS011;75315;49.006;9.060;2024-03-23T09:58:08;41.40;;;3.33;;
647;SDS011;75315;49.006;9.060;2024-03-23T10:00:37;37.55;;;3.70;;
647;SDS011;75315;49.006;9.060;2024-03-23T10:03:04;39.15;;;3.90;;
647;SDS011;75315;49.006;9.060;2024-03-23T10:05:32;41.00;;;4.03;;
647;SDS011;75315;49.006;9.060;2024-03-23T10:10:40;37.40;;;3.63;;
647;SDS011;75315;49.006;9.060;2024-03-23T10:13:07;40.58;;;3.55;;
647;SDS011;75315;49.006;9.060;2024-03-23T10:15:34;38.63;;;3.40;;
647;SDS011;75315;49.006;9.060;2024-03-23T10:18:17;38.08;;;3.78;;
647;SDS011;75315;49.006;9.060;2024-03-23T10:20:50;39.25;;;3.92;;
647;SDS011;75315;49.006;9.060;2024-03-23T10:23:32;38.97;;;3.65;;
647;SDS011;75315;49.006;9.060;2024-03-23T10:26:21;45.53;;;3.38;;
647;SDS011;75315;49.006;9.060;2024-03-23T10:31:17;39.63;;;4.15;;
647;SDS011;75315;49.006;9.060;2024-03-23T10:33:45;37.75;;;2.95;;
647;SDS011;75315;49.006;9.060;2024-03-23T10:36:13;38.60;;;3.40;;
647;SDS011;75315;49.006;9.060;2024-03-23T10:38:40;40.78;;;3.78;;
647;SDS011;75315;49.006;9.060;2024-03-23T10:41:08;37.90;;;3.30;;
647;SDS011;75315;49.006;9.060;2024-03-23T10:43:38;39.20;;;4.03;;
647;SDS011;75315;49.006;9.060;2024-03-23T10:46:05;40.90;;;3.67;;
647;SDS011;75315;49.006;9.060;2024-03-23T10:48:32;44.90;;;4.07;;
647;SDS011;75315;49.006;9.060;2024-03-23T10:50:59;42.47;;;6.00;;
647;SDS011;75315;49.006;9.060;2024-03-23T10:53:26;38.40;;;3.78;;
647;SDS011;75315;49.006;9.060;2024-03-23T10:55:54;44.38;;;4.55;;
647;SDS011;75315;49.006;9.060;2024-03-23T10:58:23;40.15;;;3.33;;
647;SDS011;75315;49.006;9.060;2024-03-23T11:00:58;42.85;;;4.70;;
647;SDS011;75315;49.006;9.060;2024-03-23T11:03:38;42.25;;;4.53;;
647;SDS011;75315;49.006;9.060;2024-03-23T11:06:06;41.58;;;4.00;;
647;SDS011;75315;49.006;9.060;2024-03-23T11:08:36;42.55;;;5.53;;
647;SDS011;75315;49.006;9.060;2024-03-23T11:11:22;46.35;;;4.68;;
647;SDS011;75315;49.006;9.060;2024-03-23T11:13:51;40.65;;;4.10;;
647;SDS011;75315;49.006;9.060;2024-03-23T11:16:22;38.55;;;3.97;;
647;SDS011;75315;49.006;9.060;2024-03-23T11:18:51;40.95;;;4.15;;
647;SDS011;75315;49.006;9.060;2024-03-23T11:24:21;42.67;;;4.85;;
647;SDS011;75315;49.006;9.060;2024-03-23T11:26:48;42.33;;;4.70;;
647;SDS011;75315;49.006;9.060;2024-03-23T11:29:15;42.03;;;5.60;;
647;SDS011;75315;49.006;9.060;2024-03-23T11:31:50;40.22;;;4.75;;
647;SDS011;75315;49.006;9.060;2024-03-23T11:34:18;38.15;;;3.50;;
647;SDS011;75315;49.006;9.060;2024-03-23T11:36:45;37.75;;;4.28;;
647;SDS011;75315;49.006;9.060;2024-03-23T11:41:50;41.58;;;4.18;;
647;SDS011;75315;49.006;9.060;2024-03-23T11:44:21;41.05;;;3.85;;
647;SDS011;75315;49.006;9.060;2024-03-23T11:46:49;40.75;;;3.55;;
647;SDS011;75315;49.006;9.060;2024-03-23T11:49:25;39.03;;;3.67;;
647;SDS011;75315;49.006;9.060;2024-03-23T11:51:53;39.47;;;3.40;;
647;SDS011;75315;49.006;9.060;2024-03-23T11:54:21;37.47;;;2.60;;
647;SDS011;75315;49.006;9.060;2024-03-23T11:56:58;36.90;;;2.30;;
647;SDS011;75315;49.006;9.060;2024-03-23T11:59:32;39.83;;;3.37;;
647;SDS011;75315;49.006;9.060;2024-03-23T12:02:07;36.90;;;2.60;;
647;SDS011;75315;49.006;9.060;2024-03-23T12:04:40;38.83;;;2.77;;
647;SDS011;75315;49.006;9.060;2024-03-23T12:09:45;42.50;;;3.40;;
647;SDS011;75315;49.006;9.060;2024-03-23T12:12:16;38.07;;;1.73;;
647;SDS011;75315;49.006;9.060;2024-03-23T12:14:43;35.97;;;3.00;;
647;SDS011;75315;49.006;9.060;2024-03-23T12:17:11;36.07;;;2.37;;
647;SDS011;75315;49.006;9.060;2024-03-23T12:19:41;39.80;;;3.90;;
647;SDS011;75315;49.006;9.060;2024-03-23T12:22:08;38.40;;;3.00;;
647;SDS011;75315;49.006;9.060;2024-03-23T12:24:35;41.50;;;2.97;;
647;SDS011;75315;49.006;9.060;2024-03-23T12:27:02;35.43;;;2.40;;
647;SDS011;75315;49.006;9.060;2024-03-23T12:29:29;35.20;;;3.03;;
647;SDS011;75315;49.006;9.060;2024-03-23T12:31:59;38.97;;;2.77;;
647;SDS011;75315;49.006;9.060;2024-03-23T12:34:26;38.90;;;2.93;;
647;SDS011;75315;49.006;9.060;2024-03-23T12:36:53;39.63;;;3.10;;
647;SDS011;75315;49.006;9.060;2024-03-23T12:39:20;36.20;;;3.10;;
647;SDS011;75315;49.006;9.060;2024-03-23T12:41:47;40.80;;;2.53;;
647;SDS011;75315;49.006;9.060;2024-03-23T12:44:14;35.80;;;3.10;;
647;SDS011;75315;49.006;9.060;2024-03-23T12:46:41;37.90;;;3.27;;
647;SDS011;75315;49.006;9.060;2024-03-23T12:49:08;37.63;;;2.60;;
647;SDS011;75315;49.006;9.060;2024-03-23T12:51:34;38.30;;;3.53;;
647;SDS011;75315;49.006;9.060;2024-03-23T12:54:01;38.77;;;2.80;;
647;SDS011;75315;49.006;9.060;2024-03-23T12:56:28;39.00;;;3.43;;
647;SDS011;75315;49.006;9.060;2024-03-23T12:58:55;37.07;;;2.87;;
647;SDS011;75315;49.006;9.060;2024-03-23T13:01:23;39.17;;;3.17;;
647;SDS011;75315;49.006;9.060;2024-03-23T13:03:49;39.80;;;3.37;;
647;SDS011;75315;49.006;9.060;2024-03-23T13:06:16;39.37;;;3.73;;
647;SDS011;75315;49.006;9.060;2024-03-23T13:08:47;35.37;;;3.00;;
647;SDS011;75315;49.006;9.060;2024-03-23T13:11:15;35.90;;;2.50;;
647;SDS011;75315;49.006;9.060;2024-03-23T13:13:42;37.93;;;2.80;;
647;SDS011;75315;49.006;9.060;2024-03-23T13:16:08;36.40;;;2.67;;
647;SDS011;75315;49.006;9.060;2024-03-23T13:18:34;35.20;;;2.50;;
647;SDS011;75315;49.006;9.060;2024-03-23T13:21:01;36.50;;;2.80;;
647;SDS011;75315;49.006;9.060;2024-03-23T13:23:29;37.60;;;2.93;;
647;SDS011;75315;49.006;9.060;2024-03-23T13:25:57;41.50;;;3.07;;
647;SDS011;75315;49.006;9.060;2024-03-23T13:28:23;40.60;;;3.60;;
647;SDS011;75315;49.006;9.060;2024-03-23T13:30:56;36.67;;;3.20;;
647;SDS011;75315;49.006;9.060;2024-03-23T13:33:30;39.73;;;3.27;;
647;SDS011;75315;49.006;9.060;2024-03-23T13:35:58;40.20;;;2.53;;
647;SDS011;75315;49.006;9.060;2024-03-23T13:38:24;35.47;;;2.37;;
647;SDS011;75315;49.006;9.060;2024-03-23T13:40:52;37.53;;;2.30;;
647;SDS011;75315;49.006;9.060;2024-03-23T13:43:19;36.30;;;1.90;;
647;SDS011;75315;49.006;9.060;2024-03-23T13:45:47;34.05;;;1.58;;
647;SDS011;75315;49.006;9.060;2024-03-23T13:48:15;39.65;;;2.40;;
647;SDS011;75315;49.006;9.060;2024-03-23T13:50:41;34.65;;;1.40;;
647;SDS011;75315;49.006;9.060;2024-03-23T13:53:08;35.85;;;1.67;;
647;SDS011;75315;49.006;9.060;2024-03-23T13:55:34;35.75;;;2.20;;
647;SDS011;75315;49.006;9.060;2024-03-23T13:58:01;38.70;;;1.70;;
647;SDS011;75315;49.006;9.060;2024-03-23T14:00:28;38.15;;;1.90;;
647;SDS011;75315;49.006;9.060;2024-03-23T14:02:54;35.58;;;1.48;;
647;SDS011;75315;49.006;9.060;2024-03-23T14:05:21;40.33;;;1.95;;
647;SDS011;75315;49.006;9.060;2024-03-23T14:07:47;35.05;;;1.45;;
647;SDS011;75315;49.006;9.060;2024-03-23T14:10:15;35.72;;;1.52;;
647;SDS011;75315;49.006;9.060;2024-03-23T14:12:41;35.05;;;1.40;;
647;SDS011;75315;49.006;9.060;2024-03-23T14:15:08;34.75;;;1.13;;
647;SDS011;75315;49.006;9.060;2024-03-23T14:17:34;35.15;;;1.40;;
647;SDS011;75315;49.006;9.060;2024-03-23T14:20:01;36.30;;;1.85;;
647;SDS011;75315;49.006;9.060;2024-03-23T14:22:29;43.25;;;3.90;;
647;SDS011;75315;49.006;9.060;2024-03-23T14:24:55;35.45;;;1.95;;
647;SDS011;75315;49.006;9.060;2024-03-23T14:27:22;34.78;;;1.42;;
647;SDS011;75315;49.006;9.060;2024-03-23T14:29:48;35.47;;;1.70;;
647;SDS011;75315;49.006;9.060;2024-03-23T14:32:15;34.15;;;1.70;;
647;SDS011;75315;49.006;9.060;2024-03-23T14:34:41;38.47;;;2.20;;
647;SDS011;75315;49.006;9.060;2024-03-23T14:37:08;34.63;;;1.58;;
647;SDS011;75315;49.006;9.060;2024-03-23T14:39:34;35.25;;;1.50;;
647;SDS011;75315;49.006;9.060;2024-03-23T14:42:01;35.95;;;1.35;;
647;SDS011;75315;49.006;9.060;2024-03-23T14:44:27;34.17;;;1.20;;
647;SDS011;75315;49.006;9.060;2024-03-23T14:46:54;33.85;;;1.30;;
647;SDS011;75315;49.006;9.060;2024-03-23T14:49:21;34.80;;;1.50;;
647;SDS011;75315;49.006;9.060;2024-03-23T14:51:47;33.78;;;1.35;;
647;SDS011;75315;49.006;9.060;2024-03-23T14:54:14;36.38;;;1.80;;
647;SDS011;75315;49.006;9.060;2024-03-23T14:56:40;35.17;;;2.75;;
647;SDS011;75315;49.006;9.060;2024-03-23T14:59:06;36.40;;;1.98;;
647;SDS011;75315;49.006;9.060;2024-03-23T15:01:33;36.80;;;1.48;;
647;SDS011;75315;49.006;9.060;2024-03-23T15:04:00;34.65;;;1.42;;
647;SDS011;75315;49.006;9.060;2024-03-23T15:06:26;34.30;;;1.63;;
647;SDS011;75315;49.006;9.060;2024-03-23T15:08:53;37.40;;;1.60;;
647;SDS011;75315;49.006;9.060;2024-03-23T15:11:20;37.42;;;1.38;;
647;SDS011;75315;49.006;9.060;2024-03-23T15:13:46;39.45;;;1.40;;
647;SDS011;75315;49.006;9.060;2024-03-23T15:16:18;34.90;;;1.13;;
647;SDS011;75315;49.006;9.060;2024-03-23T15:18:48;33.75;;;1.10;;
647;SDS011;75315;49.006;9.060;2024-03-23T15:21:14;33.75;;;1.00;;
647;SDS011;75315;49.006;9.060;2024-03-23T15:23:46;37.20;;;1.30;;
647;SDS011;75315;49.006;9.060;2024-03-23T15:26:13;37.75;;;1.48;;
647;SDS011;75315;49.006;9.060;2024-03-23T15:28:39;34.05;;;1.30;;
647;SDS011;75315;49.006;9.060;2024-03-23T15:31:24;35.05;;;1.42;;
647;SDS011;75315;49.006;9.060;2024-03-23T15:33:51;34.65;;;1.40;;
647;SDS011;75315;49.006;9.060;2024-03-23T15:36:18;35.67;;;1.88;;
647;SDS011;75315;49.006;9.060;2024-03-23T15:38:44;34.55;;;1.48;;
647;SDS011;75315;49.006;9.060;2024-03-23T15:41:10;35.97;;;1.50;;
647;SDS011;75315;49.006;9.060;2024-03-23T15:43:37;33.15;;;1.20;;
647;SDS011;75315;49.006;9.060;2024-03-23T15:46:04;34.85;;;2.60;;
647;SDS011;75315;49.006;9.060;2024-03-23T15:48:36;36.25;;;2.72;;
647;SDS011;75315;49.006;9.060;2024-03-23T15:51:03;37.95;;;3.80;;
647;SDS011;75315;49.006;9.060;2024-03-23T15:53:30;38.92;;;3.45;;
647;SDS011;75315;49.006;9.060;2024-03-23T15:56:00;35.28;;;2.22;;
647;SDS011;75315;49.006;9.060;2024-03-23T15:58:27;34.60;;;1.80;;
647;SDS011;75315;49.006;9.060;2024-03-23T16:00:58;33.80;;;1.60;;
647;SDS011;75315;49.006;9.060;2024-03-23T16:03:30;35.30;;;1.67;;
647;SDS011;75315;49.006;9.060;2024-03-23T16:05:59;36.08;;;1.90;;
647;SDS011;75315;49.006;9.060;2024-03-23T16:08:26;34.28;;;1.75;;
647;SDS011;75315;49.006;9.060;2024-03-23T16:10:53;34.55;;;1.65;;